Time;durP1;ratioP1;P1;durP2;ratioP2;P2;SDS_P1;SDS_P2;PMS_P1;PMS_P2;Temp;Humidity;BMP_temperature;BMP_pressure;BME280_temperature;BME280_humidity;BME280_pressure;Samples;Min_cycle;Max_cycle;Signal;HPM_P1;HPM_P2
2021/03/21 00:02:16;;;;;;;45.10;28.15;;;;;;;;;;4930064;29;20212;-96
2021/03/21 00:04:42;;;;;;;44.10;26.67;;;;;;;;;;4922843;29;20246;-96
2021/03/21 00:07:09;;;;;;;43.60;27.92;;;;;;;;;;4922525;29;20223;-96
2021/03/21 00:09:35;;;;;;;43.33;25.52;;;;;;;;;;4922802;29;20203;-96
2021/03/21 00:49:58;;;;;;;45.95;26.10;;;;;;;;;;4929541;29;20253;-96
2021/03/21 00:52:34;;;;;;;47.55;27.63;;;;;;;;;;4940902;29;20200;-96
2021/03/21 00:58:17;;;;;;;42.65;25.13;;;;;;;;;;4940479;29;20205;-95
2021/03/21 01:00:59;;;;;;;44.53;28.23;;;;;;;;;;4937000;29;20218;-96
2021/03/21 01:03:47;;;;;;;47.92;27.83;;;;;;;;;;4940478;29;20248;-96
2021/03/21 01:22:06;;;;;;;53.85;29.80;;;;;;;;;;4916512;29;20230;-96
2021/03/21 01:24:32;;;;;;;50.25;29.23;;;;;;;;;;4924385;29;20212;-95
2021/03/21 01:26:58;;;;;;;48.77;29.77;;;;;;;;;;4921959;29;20208;-93
2021/03/21 01:29:24;;;;;;;45.57;27.17;;;;;;;;;;4927173;29;20464;-93
2021/03/21 01:31:50;;;;;;;46.83;28.65;;;;;;;;;;4927595;29;20459;-95
2021/03/21 01:34:16;;;;;;;46.25;28.58;;;;;;;;;;4919936;29;20249;-95
2021/03/21 01:36:42;;;;;;;45.97;26.40;;;;;;;;;;4927222;29;20212;-96
2021/03/21 01:39:11;;;;;;;46.78;28.17;;;;;;;;;;4918567;29;20217;-96
2021/03/21 01:41:42;;;;;;;46.03;28.40;;;;;;;;;;4932749;29;20216;-96
2021/03/21 01:54:58;;;;;;;37.33;22.48;;;;;;;;;;5555655;23;20234;-96
2021/03/21 01:57:35;;;;;;;37.30;22.25;;;;;;;;;;4959510;29;20207;-96
2021/03/21 02:03:08;;;;;;;33.92;20.88;;;;;;;;;;4959330;29;20205;-96
2021/03/21 02:05:37;;;;;;;31.90;22.55;;;;;;;;;;4954834;29;20218;-95
2021/03/21 02:08:15;;;;;;;32.97;21.33;;;;;;;;;;4947388;29;20309;-93
2021/03/21 02:10:46;;;;;;;37.60;22.23;;;;;;;;;;4951607;29;20221;-92
2021/03/21 02:13:16;;;;;;;35.75;22.60;;;;;;;;;;4955158;29;20218;-91
2021/03/21 02:15:47;;;;;;;35.85;22.15;;;;;;;;;;4951523;29;20235;-90
2021/03/21 02:18:15;;;;;;;33.05;20.95;;;;;;;;;;4945481;29;20266;-90
2021/03/21 02:21:02;;;;;;;33.85;22.17;;;;;;;;;;4949591;29;20207;-91
2021/03/21 02:23:46;;;;;;;32.22;20.90;;;;;;;;;;4951574;28;20235;-93
2021/03/21 02:26:35;;;;;;;33.33;21.90;;;;;;;;;;4931052;29;20227;-96
2021/03/21 02:31:43;;;;;;;37.33;22.60;;;;;;;;;;5031448;23;20281;-96
2021/03/21 02:34:13;;;;;;;40.90;24.55;;;;;;;;;;4948097;29;20243;-95
2021/03/21 02:36:42;;;;;;;38.22;24.90;;;;;;;;;;4947946;29;20219;-95
2021/03/21 02:39:10;;;;;;;42.75;25.30;;;;;;;;;;4955705;29;20215;-93
2021/03/21 02:41:38;;;;;;;39.08;23.98;;;;;;;;;;4945165;29;20216;-93
2021/03/21 02:44:07;;;;;;;36.75;22.25;;;;;;;;;;4954388;29;20207;-92
2021/03/21 02:46:35;;;;;;;47.38;28.02;;;;;;;;;;4946433;29;20229;-92
2021/03/21 02:49:04;;;;;;;43.88;25.00;;;;;;;;;;4953662;29;21095;-92
2021/03/21 02:51:31;;;;;;;38.92;23.42;;;;;;;;;;4950855;29;20213;-94
2021/03/21 02:53:59;;;;;;;39.10;26.58;;;;;;;;;;4951755;29;20224;-95
2021/03/21 02:56:26;;;;;;;42.70;24.23;;;;;;;;;;4944594;29;20224;-95
2021/03/21 02:58:57;;;;;;;38.28;22.70;;;;;;;;;;4949121;28;20258;-96
2021/03/21 03:12:32;;;;;;;26.92;18.45;;;;;;;;;;4947997;28;20245;-96
2021/03/21 03:14:58;;;;;;;29.30;19.10;;;;;;;;;;4953764;29;20249;-94
2021/03/21 03:17:28;;;;;;;31.15;19.77;;;;;;;;;;4945562;29;20213;-95
2021/03/21 03:19:56;;;;;;;34.85;20.85;;;;;;;;;;4951549;29;20204;-92
2021/03/21 03:22:25;;;;;;;29.70;19.13;;;;;;;;;;4960101;29;20235;-93
2021/03/21 03:25:01;;;;;;;28.65;20.35;;;;;;;;;;4944175;29;20307;-92
2021/03/21 03:27:32;;;;;;;30.02;19.52;;;;;;;;;;4945249;29;20249;-93
2021/03/21 03:30:01;;;;;;;28.67;19.00;;;;;;;;;;4944585;29;20208;-93
2021/03/21 03:32:28;;;;;;;31.60;18.88;;;;;;;;;;4954001;29;20222;-95
2021/03/21 03:34:56;;;;;;;28.70;18.77;;;;;;;;;;4955722;28;20234;-96
2021/03/21 03:37:26;;;;;;;31.23;19.25;;;;;;;;;;4963315;28;20199;-96
2021/03/21 03:39:52;;;;;;;30.83;19.55;;;;;;;;;;4959614;28;20279;-96
2021/03/21 03:42:22;;;;;;;32.47;21.08;;;;;;;;;;4959108;29;20613;-96
2021/03/21 03:44:54;;;;;;;33.67;20.65;;;;;;;;;;4955213;29;20217;-94
2021/03/21 03:47:23;;;;;;;32.70;20.73;;;;;;;;;;4956605;29;20270;-95
2021/03/21 03:49:53;;;;;;;41.33;25.20;;;;;;;;;;4955376;29;20220;-94
2021/03/21 03:52:40;;;;;;;42.70;26.50;;;;;;;;;;4951140;29;20222;-94
2021/03/21 03:55:07;;;;;;;37.40;23.95;;;;;;;;;;4946523;28;20236;-95
2021/03/21 03:57:36;;;;;;;36.45;23.15;;;;;;;;;;4956198;29;20209;-93
2021/03/21 04:00:09;;;;;;;40.60;24.95;;;;;;;;;;4954797;29;20208;-93
2021/03/21 04:02:40;;;;;;;37.95;23.73;;;;;;;;;;4955911;29;20222;-93
2021/03/21 04:05:08;;;;;;;41.22;25.70;;;;;;;;;;4951777;29;20991;-92
2021/03/21 04:07:38;;;;;;;45.35;27.75;;;;;;;;;;4954921;29;20204;-91
2021/03/21 04:10:08;;;;;;;37.22;24.65;;;;;;;;;;4952173;29;20736;-91
2021/03/21 04:12:38;;;;;;;39.47;25.70;;;;;;;;;;4956489;29;20223;-90
2021/03/21 04:15:09;;;;;;;39.45;25.30;;;;;;;;;;4951856;29;20240;-91
2021/03/21 04:17:37;;;;;;;39.15;25.40;;;;;;;;;;4951703;29;20220;-91
2021/03/21 04:20:07;;;;;;;42.83;25.83;;;;;;;;;;4951858;29;20205;-90
2021/03/21 04:22:35;;;;;;;38.13;24.77;;;;;;;;;;4955160;29;20252;-92
2021/03/21 04:25:03;;;;;;;40.30;24.73;;;;;;;;;;4956010;29;20211;-91
2021/03/21 04:27:31;;;;;;;37.50;24.30;;;;;;;;;;4945800;28;20207;-91
2021/03/21 04:30:00;;;;;;;36.58;23.60;;;;;;;;;;4955622;29;20340;-91
2021/03/21 04:32:29;;;;;;;36.08;22.48;;;;;;;;;;4951761;29;20225;-92
2021/03/21 04:34:57;;;;;;;35.97;23.98;;;;;;;;;;4957307;29;20257;-92
2021/03/21 04:37:24;;;;;;;36.33;23.27;;;;;;;;;;4945177;29;20215;-93
2021/03/21 04:39:52;;;;;;;36.97;22.70;;;;;;;;;;4947709;29;20239;-92
2021/03/21 04:42:21;;;;;;;37.10;24.60;;;;;;;;;;4945551;29;20239;-94
2021/03/21 04:44:50;;;;;;;40.47;24.73;;;;;;;;;;4960661;29;20200;-95
2021/03/21 04:47:19;;;;;;;42.55;27.45;;;;;;;;;;4953795;29;20213;-96
2021/03/21 04:49:46;;;;;;;74.57;37.85;;;;;;;;;;4963751;29;20212;-95
2021/03/21 04:52:16;;;;;;;100.18;51.92;;;;;;;;;;4954029;29;20209;-95
2021/03/21 04:54:45;;;;;;;57.55;33.45;;;;;;;;;;4948144;29;20244;-95
2021/03/21 04:57:17;;;;;;;40.13;26.73;;;;;;;;;;4946784;29;20208;-96
2021/03/21 04:59:43;;;;;;;42.85;28.58;;;;;;;;;;4962301;29;20207;-94
2021/03/21 05:02:13;;;;;;;37.55;25.70;;;;;;;;;;4956596;29;20238;-95
2021/03/21 05:04:40;;;;;;;28.08;19.65;;;;;;;;;;4954821;29;20213;-95
2021/03/21 05:07:13;;;;;;;34.63;22.95;;;;;;;;;;4959408;29;20224;-94
2021/03/21 05:09:40;;;;;;;33.13;22.63;;;;;;;;;;4959002;29;20234;-94
2021/03/21 05:12:10;;;;;;;31.35;20.80;;;;;;;;;;4957220;29;20213;-93
2021/03/21 05:14:38;;;;;;;44.25;25.73;;;;;;;;;;4954219;29;20227;-93
2021/03/21 05:17:09;;;;;;;33.47;21.17;;;;;;;;;;4947692;29;20309;-92
2021/03/21 05:19:39;;;;;;;29.63;20.67;;;;;;;;;;4945399;29;20237;-92
2021/03/21 05:22:08;;;;;;;40.00;24.45;;;;;;;;;;4954274;29;20204;-92
2021/03/21 05:24:38;;;;;;;29.98;20.30;;;;;;;;;;4948404;29;20207;-93
2021/03/21 05:27:05;;;;;;;29.13;19.95;;;;;;;;;;4956523;29;20290;-93
2021/03/21 05:29:42;;;;;;;26.83;19.25;;;;;;;;;;4945428;29;20217;-93
2021/03/21 05:32:09;;;;;;;32.85;22.75;;;;;;;;;;4955713;29;20861;-93
2021/03/21 05:34:35;;;;;;;38.10;25.52;;;;;;;;;;4951483;29;20323;-92
2021/03/21 05:37:07;;;;;;;34.30;22.13;;;;;;;;;;4955653;29;20214;-93
2021/03/21 05:39:42;;;;;;;31.92;21.30;;;;;;;;;;4946485;29;20480;-92
2021/03/21 05:42:26;;;;;;;31.58;21.20;;;;;;;;;;4954946;29;20206;-91
2021/03/21 05:45:02;;;;;;;29.27;18.88;;;;;;;;;;4944185;29;20208;-92
2021/03/21 05:47:46;;;;;;;26.27;17.38;;;;;;;;;;4953747;29;20214;-91
2021/03/21 05:50:31;;;;;;;27.23;18.05;;;;;;;;;;4939255;29;20224;-91
2021/03/21 05:53:02;;;;;;;29.38;19.95;;;;;;;;;;4957545;29;20207;-91
2021/03/21 05:55:42;;;;;;;27.67;19.20;;;;;;;;;;4953705;29;20318;-91
2021/03/21 05:58:29;;;;;;;37.20;21.00;;;;;;;;;;4954573;28;21797;-91
2021/03/21 06:01:25;;;;;;;25.25;17.20;;;;;;;;;;4934341;29;20215;-93
2021/03/21 06:04:18;;;;;;;25.80;18.20;;;;;;;;;;4956519;29;20207;-93
2021/03/21 06:06:53;;;;;;;25.92;18.00;;;;;;;;;;4946551;29;20204;-95
2021/03/21 06:09:37;;;;;;;26.23;17.92;;;;;;;;;;4951670;29;20246;-95
2021/03/21 06:12:14;;;;;;;22.40;14.32;;;;;;;;;;4954195;29;20239;-95
2021/03/21 06:14:58;;;;;;;23.15;15.70;;;;;;;;;;4953936;29;20230;-95
2021/03/21 06:17:43;;;;;;;22.23;16.13;;;;;;;;;;4948869;29;20217;-95
2021/03/21 06:20:24;;;;;;;18.77;14.02;;;;;;;;;;4963373;29;20207;-96
2021/03/21 06:22:58;;;;;;;20.25;13.93;;;;;;;;;;4949381;29;20210;-96
2021/03/21 06:25:39;;;;;;;20.33;15.80;;;;;;;;;;4938720;29;20255;-96
2021/03/21 06:28:20;;;;;;;19.70;15.15;;;;;;;;;;4956326;28;20208;-93
2021/03/21 06:31:01;;;;;;;21.33;15.68;;;;;;;;;;4933014;29;20211;-94
2021/03/21 06:33:33;;;;;;;17.65;13.75;;;;;;;;;;4945813;29;20235;-93
2021/03/21 06:36:06;;;;;;;18.42;14.02;;;;;;;;;;4950084;29;20258;-91
2021/03/21 06:38:51;;;;;;;18.52;14.82;;;;;;;;;;4951415;29;20219;-89
2021/03/21 06:41:29;;;;;;;17.27;13.52;;;;;;;;;;4937140;29;20303;-89
2021/03/21 06:44:02;;;;;;;25.40;17.92;;;;;;;;;;4953646;29;20209;-92
2021/03/21 06:46:37;;;;;;;16.90;13.10;;;;;;;;;;4950804;29;20204;-92
2021/03/21 06:49:11;;;;;;;19.33;14.18;;;;;;;;;;4953728;29;20213;-93
2021/03/21 06:51:43;;;;;;;23.13;16.73;;;;;;;;;;4948085;29;20696;-93
2021/03/21 06:54:26;;;;;;;25.95;17.85;;;;;;;;;;4954065;29;20216;-96
2021/03/21 06:57:08;;;;;;;24.95;19.00;;;;;;;;;;4946815;29;20568;-95
2021/03/21 06:59:49;;;;;;;33.03;24.00;;;;;;;;;;4943665;29;20203;-96
2021/03/21 07:02:27;;;;;;;43.75;31.30;;;;;;;;;;4942549;29;20216;-96
2021/03/21 07:05:29;;;;;;;46.05;28.20;;;;;;;;;;4964095;29;20207;-96
2021/03/21 07:11:14;;;;;;;107.60;62.35;;;;;;;;;;4949641;29;20259;-92
2021/03/21 07:13:57;;;;;;;113.80;65.22;;;;;;;;;;4948232;29;20217;-91
2021/03/21 07:16:37;;;;;;;103.55;59.92;;;;;;;;;;4937285;29;20210;-90
2021/03/21 07:19:21;;;;;;;99.60;57.90;;;;;;;;;;4953823;29;20217;-90
2021/03/21 07:22:04;;;;;;;93.32;54.42;;;;;;;;;;4955602;29;20209;-92
2021/03/21 07:24:44;;;;;;;83.80;51.58;;;;;;;;;;4951204;29;20296;-94
2021/03/21 07:27:28;;;;;;;67.47;42.85;;;;;;;;;;4960557;29;20203;-91
2021/03/21 07:29:55;;;;;;;63.90;41.58;;;;;;;;;;4953334;29;20206;-92
2021/03/21 07:32:32;;;;;;;67.70;41.22;;;;;;;;;;4956010;29;20227;-93
2021/03/21 07:35:12;;;;;;;77.65;47.72;;;;;;;;;;4961151;29;20706;-96
2021/03/21 07:37:48;;;;;;;79.32;48.55;;;;;;;;;;4968531;23;20250;-94
2021/03/21 07:40:38;;;;;;;70.45;44.17;;;;;;;;;;4942202;29;20223;-95
2021/03/21 07:43:24;;;;;;;52.13;36.00;;;;;;;;;;4911814;29;21625;-96
2021/03/21 07:46:14;;;;;;;48.35;32.85;;;;;;;;;;4915211;29;20233;-94
2021/03/21 07:48:46;;;;;;;45.08;30.80;;;;;;;;;;4923198;29;20220;-96
2021/03/21 07:54:29;;;;;;;36.63;25.63;;;;;;;;;;5597427;23;20267;-96
2021/03/21 07:57:00;;;;;;;35.25;24.58;;;;;;;;;;4949429;29;20224;-92
2021/03/21 07:59:31;;;;;;;36.33;24.92;;;;;;;;;;4941717;29;21704;-94
2021/03/21 08:01:57;;;;;;;34.60;25.02;;;;;;;;;;4961379;29;20208;-93
2021/03/21 08:04:24;;;;;;;29.85;20.70;;;;;;;;;;4955847;29;20222;-94
2021/03/21 08:06:55;;;;;;;24.00;17.48;;;;;;;;;;4950874;29;20216;-94
2021/03/21 08:09:22;;;;;;;25.88;18.08;;;;;;;;;;4948336;29;20203;-94
2021/03/21 08:11:51;;;;;;;23.50;17.05;;;;;;;;;;4965080;29;20275;-95
2021/03/21 08:14:22;;;;;;;16.73;12.68;;;;;;;;;;4954349;29;20217;-96
2021/03/21 08:16:51;;;;;;;17.52;13.20;;;;;;;;;;4950365;29;20200;-96
2021/03/21 08:19:21;;;;;;;13.40;10.45;;;;;;;;;;4940795;29;20214;-95
2021/03/21 08:21:48;;;;;;;13.65;11.50;;;;;;;;;;4935230;28;20211;-95
2021/03/21 08:24:16;;;;;;;13.07;11.52;;;;;;;;;;4946763;28;20252;-96
2021/03/21 08:26:43;;;;;;;18.20;13.50;;;;;;;;;;4954507;29;20229;-95
2021/03/21 08:29:11;;;;;;;18.85;13.45;;;;;;;;;;4954678;29;20209;-96
2021/03/21 08:31:39;;;;;;;22.75;16.85;;;;;;;;;;4946920;29;20214;-95
2021/03/21 08:34:19;;;;;;;26.85;19.70;;;;;;;;;;4962170;29;20210;-96
2021/03/21 08:36:45;;;;;;;24.20;18.10;;;;;;;;;;4945117;29;20214;-95
2021/03/21 08:39:15;;;;;;;19.90;15.15;;;;;;;;;;4965018;29;20218;-96
2021/03/21 08:41:45;;;;;;;16.35;12.95;;;;;;;;;;4950711;28;20213;-95
2021/03/21 08:44:21;;;;;;;18.58;12.95;;;;;;;;;;4961287;29;20238;-95
2021/03/21 08:46:48;;;;;;;17.98;13.45;;;;;;;;;;4952740;29;20221;-95
2021/03/21 08:49:18;;;;;;;20.08;15.05;;;;;;;;;;4938391;29;20205;-96
2021/03/21 08:51:44;;;;;;;31.27;20.98;;;;;;;;;;4941859;29;20221;-95
2021/03/21 08:54:15;;;;;;;40.08;27.20;;;;;;;;;;4960524;29;20544;-94
2021/03/21 08:56:42;;;;;;;39.70;28.85;;;;;;;;;;4947140;29;20234;-96
2021/03/21 08:59:17;;;;;;;42.60;29.20;;;;;;;;;;4942717;29;20200;-95
2021/03/21 09:01:55;;;;;;;45.28;30.30;;;;;;;;;;4943965;29;20226;-96
2021/03/21 09:04:25;;;;;;;41.78;29.20;;;;;;;;;;4957110;29;20219;-96
2021/03/21 09:06:52;;;;;;;39.58;26.98;;;;;;;;;;4948232;29;20219;-95
2021/03/21 09:09:21;;;;;;;40.83;28.30;;;;;;;;;;4940075;29;20210;-96
2021/03/21 09:11:49;;;;;;;35.22;25.92;;;;;;;;;;4956135;29;20551;-96
2021/03/21 09:14:22;;;;;;;34.70;25.77;;;;;;;;;;4958057;29;20211;-96
2021/03/21 09:16:56;;;;;;;34.42;23.83;;;;;;;;;;4952198;29;20229;-96
2021/03/21 09:19:23;;;;;;;18.87;16.30;;;;;;;;;;4952210;29;20222;-96
2021/03/21 09:21:49;;;;;;;26.45;19.70;;;;;;;;;;4944319;29;20521;-96
2021/03/21 09:24:22;;;;;;;26.05;17.65;;;;;;;;;;4950257;29;20223;-95
2021/03/21 09:26:49;;;;;;;28.17;19.70;;;;;;;;;;4946805;29;20271;-96
2021/03/21 09:35:22;;;;;;;33.20;24.50;;;;;;;;;;4964808;29;20235;-96
2021/03/21 09:40:34;;;;;;;36.93;25.87;;;;;;;;;;4918008;29;20237;-96
2021/03/21 09:43:14;;;;;;;34.23;25.33;;;;;;;;;;4938418;29;20479;-96
2021/03/21 10:47:52;;;;;;;28.08;21.58;;;;;;;;;;5373335;23;20480;-96
2021/03/21 10:50:47;;;;;;;24.80;19.20;;;;;;;;;;4942282;29;20190;-96
2021/03/21 11:24:03;;;;;;;23.92;19.67;;;;;;;;;;5110826;23;20235;-96
2021/03/21 11:34:22;;;;;;;14.73;13.23;;;;;;;;;;4969994;29;20214;-96
2021/03/21 11:36:49;;;;;;;17.92;14.85;;;;;;;;;;4976634;29;20666;-96
2021/03/21 11:39:23;;;;;;;22.20;16.47;;;;;;;;;;4961758;28;20188;-96
2021/03/21 11:41:51;;;;;;;17.35;14.55;;;;;;;;;;4964909;28;20452;-96
2021/03/21 11:44:19;;;;;;;23.10;19.37;;;;;;;;;;4974532;29;20302;-96
2021/03/21 11:46:45;;;;;;;9.60;8.50;;;;;;;;;;4963788;29;20461;-95
2021/03/21 11:49:12;;;;;;;6.35;5.75;;;;;;;;;;4954078;29;20220;-96
2021/03/21 11:51:39;;;;;;;8.55;7.72;;;;;;;;;;4964774;28;20240;-96
2021/03/21 11:54:06;;;;;;;10.95;8.00;;;;;;;;;;4942506;29;20221;-96
2021/03/21 12:02:58;;;;;;;8.43;6.90;;;;;;;;;;4910975;29;20461;-96
2021/03/21 12:05:26;;;;;;;6.20;5.60;;;;;;;;;;4908642;29;20226;-96
2021/03/21 12:07:52;;;;;;;7.68;6.65;;;;;;;;;;4927122;29;20241;-94
2021/03/21 12:10:28;;;;;;;8.37;7.37;;;;;;;;;;4919916;29;20284;-95
2021/03/21 12:12:55;;;;;;;8.68;7.80;;;;;;;;;;4923444;29;20481;-96
2021/03/21 12:15:36;;;;;;;9.25;8.18;;;;;;;;;;4913205;29;20241;-95
2021/03/21 12:18:04;;;;;;;9.88;8.85;;;;;;;;;;4901948;29;20204;-96
2021/03/21 12:20:41;;;;;;;8.55;7.72;;;;;;;;;;4914499;29;20202;-96
2021/03/21 12:23:23;;;;;;;9.70;8.68;;;;;;;;;;4914357;29;20267;-94
2021/03/21 12:26:01;;;;;;;11.82;9.48;;;;;;;;;;4896265;29;20214;-95
2021/03/21 12:28:28;;;;;;;15.48;11.32;;;;;;;;;;4919132;29;20224;-95
2021/03/21 12:30:56;;;;;;;13.27;10.82;;;;;;;;;;4924991;29;20291;-94
2021/03/21 12:33:31;;;;;;;11.90;10.65;;;;;;;;;;4915402;29;20564;-94
2021/03/21 12:36:11;;;;;;;9.18;7.80;;;;;;;;;;4933947;29;20706;-96
2021/03/21 12:38:39;;;;;;;12.45;9.43;;;;;;;;;;4926770;29;20203;-96
2021/03/21 12:41:20;;;;;;;10.52;9.35;;;;;;;;;;4928446;29;20193;-95
2021/03/21 12:44:07;;;;;;;11.80;10.40;;;;;;;;;;4917141;29;20217;-95
2021/03/21 12:46:42;;;;;;;12.32;9.75;;;;;;;;;;4927906;29;20221;-96
2021/03/21 12:49:27;;;;;;;10.48;9.38;;;;;;;;;;4929246;29;20219;-96
2021/03/21 12:52:08;;;;;;;10.98;9.70;;;;;;;;;;4909181;29;20259;-96
2021/03/21 12:54:36;;;;;;;12.27;10.75;;;;;;;;;;4929741;29;20211;-96
2021/03/21 12:57:18;;;;;;;11.77;9.55;;;;;;;;;;4936333;29;20205;-96
2021/03/21 12:59:46;;;;;;;13.40;11.18;;;;;;;;;;4950876;23;20512;-96
2021/03/21 13:02:21;;;;;;;12.63;11.32;;;;;;;;;;4957709;29;20207;-96
2021/03/21 13:04:47;;;;;;;14.93;12.13;;;;;;;;;;4957091;29;20274;-96
2021/03/21 13:07:14;;;;;;;13.18;11.77;;;;;;;;;;4958290;28;20211;-96
2021/03/21 13:09:40;;;;;;;15.18;12.57;;;;;;;;;;4958857;28;20210;-96
2021/03/21 13:12:07;;;;;;;19.35;14.98;;;;;;;;;;4957082;29;20983;-96
2021/03/21 13:14:33;;;;;;;10.40;9.30;;;;;;;;;;4954109;29;20230;-96
2021/03/21 13:17:01;;;;;;;12.32;10.82;;;;;;;;;;4947172;29;20214;-96
2021/03/21 13:19:27;;;;;;;12.65;10.18;;;;;;;;;;4953286;28;20236;-96
2021/03/21 13:21:53;;;;;;;12.30;10.43;;;;;;;;;;4973295;29;20200;-96
2021/03/21 13:24:20;;;;;;;11.83;10.57;;;;;;;;;;4964322;29;20468;-96
2021/03/21 13:26:47;;;;;;;11.07;9.73;;;;;;;;;;4960846;29;20457;-95
2021/03/21 13:29:13;;;;;;;13.20;11.02;;;;;;;;;;4958699;29;20214;-96
2021/03/21 13:31:39;;;;;;;13.30;11.65;;;;;;;;;;4959466;29;20236;-96
2021/03/21 13:34:06;;;;;;;42.70;37.75;;;;;;;;;;4951814;29;20219;-95
2021/03/21 13:36:32;;;;;;;20.98;16.90;;;;;;;;;;4952328;29;20691;-96
2021/03/21 13:38:58;;;;;;;33.50;23.95;;;;;;;;;;4953771;29;20217;-96
2021/03/21 13:41:24;;;;;;;59.33;43.42;;;;;;;;;;4948650;29;20237;-96
2021/03/21 13:43:53;;;;;;;16.25;13.50;;;;;;;;;;4953398;29;20204;-96
2021/03/21 13:46:19;;;;;;;11.75;10.50;;;;;;;;;;4957327;29;20305;-96
2021/03/21 13:48:45;;;;;;;196.67;126.07;;;;;;;;;;4953692;29;20205;-96
2021/03/21 13:51:12;;;;;;;15.75;13.18;;;;;;;;;;4950148;29;20468;-96
2021/03/21 13:53:41;;;;;;;79.88;54.25;;;;;;;;;;4970722;23;20244;-96
2021/03/21 13:56:10;;;;;;;14.60;10.95;;;;;;;;;;4957014;29;20229;-96
2021/03/21 13:58:36;;;;;;;15.88;12.00;;;;;;;;;;4956613;29;20225;-95
2021/03/21 14:01:04;;;;;;;20.20;17.92;;;;;;;;;;4963266;29;20298;-96
2021/03/21 14:03:30;;;;;;;20.63;14.75;;;;;;;;;;4957468;29;20209;-96
2021/03/21 14:05:58;;;;;;;18.23;15.32;;;;;;;;;;4955358;29;20213;-96
2021/03/21 14:08:25;;;;;;;21.15;16.63;;;;;;;;;;4943514;29;20225;-96
2021/03/21 14:10:51;;;;;;;23.05;17.33;;;;;;;;;;4957850;29;20220;-96
2021/03/21 14:13:17;;;;;;;27.20;20.77;;;;;;;;;;4953500;29;20211;-96
2021/03/21 14:15:44;;;;;;;15.45;12.68;;;;;;;;;;4949933;29;20229;-94
2021/03/21 14:18:11;;;;;;;16.17;13.25;;;;;;;;;;4953468;29;20220;-96
2021/03/21 14:20:40;;;;;;;24.90;20.35;;;;;;;;;;4952031;28;20263;-96
2021/03/21 14:23:08;;;;;;;40.17;29.40;;;;;;;;;;4959920;29;20643;-96
2021/03/21 14:25:36;;;;;;;16.40;12.60;;;;;;;;;;4928537;29;20215;-95
2021/03/21 14:28:04;;;;;;;14.90;13.30;;;;;;;;;;4963344;29;20218;-96
2021/03/21 14:30:53;;;;;;;15.60;13.15;;;;;;;;;;4957419;29;20461;-96
2021/03/21 14:33:21;;;;;;;19.40;16.08;;;;;;;;;;4942078;29;20238;-96
2021/03/21 14:35:48;;;;;;;21.98;18.50;;;;;;;;;;4958515;29;20237;-96
2021/03/21 14:38:15;;;;;;;14.15;10.82;;;;;;;;;;4957590;29;20238;-95
2021/03/21 14:40:43;;;;;;;12.82;11.52;;;;;;;;;;4951126;29;20216;-96
2021/03/21 14:43:10;;;;;;;16.02;13.75;;;;;;;;;;4953876;29;20279;-95
2021/03/21 14:45:37;;;;;;;15.00;13.18;;;;;;;;;;4963202;29;20297;-96
2021/03/21 14:48:03;;;;;;;15.05;12.68;;;;;;;;;;4959956;29;20583;-95
2021/03/21 14:50:29;;;;;;;39.45;31.85;;;;;;;;;;4962089;29;20216;-96
2021/03/21 14:52:56;;;;;;;41.80;37.17;;;;;;;;;;4948733;29;20233;-96
2021/03/21 14:55:24;;;;;;;24.83;21.10;;;;;;;;;;4951799;29;20239;-95
2021/03/21 14:57:51;;;;;;;14.07;12.30;;;;;;;;;;4948402;29;20229;-96
2021/03/21 15:00:20;;;;;;;11.88;9.93;;;;;;;;;;4944358;29;20217;-95
2021/03/21 15:02:46;;;;;;;14.13;10.77;;;;;;;;;;4949040;29;20217;-95
2021/03/21 15:05:12;;;;;;;14.45;11.50;;;;;;;;;;4958769;29;20208;-96
2021/03/21 15:07:38;;;;;;;14.15;11.55;;;;;;;;;;4947205;29;20209;-93
2021/03/21 15:10:05;;;;;;;14.80;11.87;;;;;;;;;;4945254;29;20737;-95
2021/03/21 15:12:33;;;;;;;13.15;11.75;;;;;;;;;;4954112;29;20473;-94
2021/03/21 15:15:00;;;;;;;19.58;15.40;;;;;;;;;;4934212;29;20226;-95
2021/03/21 15:17:26;;;;;;;20.90;17.35;;;;;;;;;;4948102;29;20214;-95
2021/03/21 15:19:52;;;;;;;22.10;17.10;;;;;;;;;;4943145;29;20216;-95
2021/03/21 15:30:48;;;;;;;26.90;23.42;;;;;;;;;;3931520;23;20237;-96
2021/03/21 15:33:14;;;;;;;22.35;17.58;;;;;;;;;;4911374;29;20210;-94
2021/03/21 15:35:44;;;;;;;21.00;17.08;;;;;;;;;;4914314;29;20249;-96
2021/03/21 15:38:10;;;;;;;22.27;16.95;;;;;;;;;;4917239;29;20219;-95
2021/03/21 15:40:38;;;;;;;22.43;17.37;;;;;;;;;;4910253;29;20397;-92
2021/03/21 15:43:06;;;;;;;15.52;13.48;;;;;;;;;;4912217;29;20467;-93
2021/03/21 15:45:33;;;;;;;19.58;15.70;;;;;;;;;;4903276;29;20229;-96
2021/03/21 15:48:01;;;;;;;19.83;16.50;;;;;;;;;;4911864;29;20211;-95
2021/03/21 15:50:29;;;;;;;16.35;13.75;;;;;;;;;;4907218;29;20278;-95
2021/03/21 15:52:56;;;;;;;18.70;15.82;;;;;;;;;;4911351;29;20222;-96
2021/03/21 15:55:22;;;;;;;19.80;15.18;;;;;;;;;;4910185;29;20267;-95
2021/03/21 15:57:48;;;;;;;13.52;10.55;;;;;;;;;;4914387;29;20211;-95
2021/03/21 16:00:17;;;;;;;16.00;11.70;;;;;;;;;;4907263;29;20244;-95
2021/03/21 16:02:43;;;;;;;20.90;13.98;;;;;;;;;;4910554;29;20238;-96
2021/03/21 16:05:10;;;;;;;22.83;17.50;;;;;;;;;;4912474;29;20503;-95
2021/03/21 16:07:36;;;;;;;31.25;20.23;;;;;;;;;;4913893;29;20517;-95
2021/03/21 16:10:03;;;;;;;29.20;21.43;;;;;;;;;;4910928;29;20209;-95
2021/03/21 16:12:29;;;;;;;31.10;21.70;;;;;;;;;;4915330;29;20541;-96
2021/03/21 16:14:55;;;;;;;29.85;23.30;;;;;;;;;;4917663;29;20357;-96
2021/03/21 16:17:21;;;;;;;34.83;25.50;;;;;;;;;;4909250;29;20221;-95
2021/03/21 16:19:52;;;;;;;42.10;29.23;;;;;;;;;;4922914;29;20193;-96
2021/03/21 16:25:28;;;;;;;19.83;15.13;;;;;;;;;;4912932;29;20201;-95
2021/03/21 16:27:55;;;;;;;46.47;28.10;;;;;;;;;;4917430;29;20238;-96
2021/03/21 16:30:25;;;;;;;30.30;20.25;;;;;;;;;;4914986;29;20254;-96
2021/03/21 16:32:51;;;;;;;16.13;12.55;;;;;;;;;;4918760;29;20221;-96
2021/03/21 16:35:18;;;;;;;12.75;10.65;;;;;;;;;;4910723;29;20240;-96
2021/03/21 16:37:48;;;;;;;16.60;13.27;;;;;;;;;;4913628;29;20214;-96
2021/03/21 16:40:14;;;;;;;17.73;13.15;;;;;;;;;;4915005;29;20233;-96
2021/03/21 16:42:41;;;;;;;22.83;16.30;;;;;;;;;;4906274;29;20214;-96
2021/03/21 16:45:08;;;;;;;17.10;14.63;;;;;;;;;;4909600;29;20198;-96
2021/03/21 16:47:34;;;;;;;17.02;13.77;;;;;;;;;;4904830;29;20239;-95
2021/03/21 16:50:00;;;;;;;24.85;18.55;;;;;;;;;;4909103;29;20211;-96
2021/03/21 16:52:26;;;;;;;34.63;26.75;;;;;;;;;;4910135;29;20217;-96
2021/03/21 16:54:52;;;;;;;40.37;36.10;;;;;;;;;;4899725;29;20740;-96
2021/03/21 16:57:18;;;;;;;24.40;19.05;;;;;;;;;;4911372;29;20567;-96
2021/03/21 16:59:45;;;;;;;34.15;23.20;;;;;;;;;;4910705;29;20824;-96
2021/03/21 17:02:13;;;;;;;24.15;17.60;;;;;;;;;;4913177;29;20216;-96
2021/03/21 17:04:40;;;;;;;30.67;20.88;;;;;;;;;;4913864;29;20610;-96
2021/03/21 17:07:06;;;;;;;49.30;30.08;;;;;;;;;;4921067;29;20224;-96
2021/03/21 17:09:32;;;;;;;20.25;15.75;;;;;;;;;;4906700;29;20208;-96
2021/03/21 17:11:59;;;;;;;18.00;13.20;;;;;;;;;;4911619;29;20222;-96
2021/03/21 17:14:28;;;;;;;16.15;11.63;;;;;;;;;;4927874;29;20198;-96
2021/03/21 17:16:55;;;;;;;18.00;12.45;;;;;;;;;;4911451;29;20973;-96
2021/03/21 17:19:21;;;;;;;19.35;13.95;;;;;;;;;;4908340;29;20274;-96
2021/03/21 17:21:49;;;;;;;21.30;15.70;;;;;;;;;;4920845;29;20209;-96
2021/03/21 17:24:16;;;;;;;23.67;16.70;;;;;;;;;;4920244;29;20210;-96
2021/03/21 17:26:44;;;;;;;24.35;17.58;;;;;;;;;;4914254;29;20303;-96
2021/03/21 17:29:10;;;;;;;22.02;18.45;;;;;;;;;;4920347;29;20273;-96
2021/03/21 17:31:39;;;;;;;21.95;15.40;;;;;;;;;;4919579;29;20238;-96
2021/03/21 17:34:09;;;;;;;21.67;15.90;;;;;;;;;;4909146;29;20221;-96
2021/03/21 17:36:35;;;;;;;20.23;15.80;;;;;;;;;;4928576;29;20273;-96
2021/03/21 17:39:01;;;;;;;11.35;9.43;;;;;;;;;;4910547;29;20217;-96
2021/03/21 17:41:27;;;;;;;10.80;9.68;;;;;;;;;;4919365;29;20261;-96
2021/03/21 17:43:53;;;;;;;13.73;10.15;;;;;;;;;;4913959;29;20231;-96
2021/03/21 17:46:19;;;;;;;12.00;10.00;;;;;;;;;;4915920;29;20210;-96
2021/03/21 17:48:45;;;;;;;15.10;11.35;;;;;;;;;;4914334;29;20461;-96
2021/03/21 17:51:12;;;;;;;18.45;14.77;;;;;;;;;;4901761;29;20230;-95
2021/03/21 17:53:39;;;;;;;20.75;18.17;;;;;;;;;;4917903;29;20235;-96
2021/03/21 17:56:06;;;;;;;25.02;18.67;;;;;;;;;;4917768;29;20317;-96
2021/03/21 17:58:33;;;;;;;23.52;19.10;;;;;;;;;;4917914;29;20212;-96
2021/03/21 18:01:05;;;;;;;22.20;18.20;;;;;;;;;;4931959;29;20272;-96
2021/03/21 18:12:10;;;;;;;24.98;19.60;;;;;;;;;;4951534;29;20207;-95
2021/03/21 18:14:38;;;;;;;27.10;20.90;;;;;;;;;;4955293;29;20264;-95
2021/03/21 18:17:19;;;;;;;25.10;19.60;;;;;;;;;;4931948;29;20239;-96
2021/03/21 18:20:02;;;;;;;28.17;20.35;;;;;;;;;;4953512;29;20199;-96
2021/03/21 18:22:31;;;;;;;28.60;22.17;;;;;;;;;;4937754;29;20215;-96
2021/03/21 18:24:58;;;;;;;28.27;21.95;;;;;;;;;;4950199;29;20192;-96
2021/03/21 18:27:29;;;;;;;30.67;23.02;;;;;;;;;;4947701;29;20211;-96